createdAt,value
2023-04-12T00:00:47.900Z,95.24
2023-04-12T00:03:14.593Z,95.53
2023-04-12T00:05:41.143Z,95.72
2023-04-12T00:08:07.585Z,95.07
2023-04-12T00:10:34.025Z,95.63
2023-04-12T00:13:00.463Z,95.22
2023-04-12T00:15:27.482Z,95.24
2023-04-12T00:17:53.926Z,94.71
2023-04-12T00:20:20.534Z,94.80
2023-04-12T00:22:47.060Z,94.99
2023-04-12T00:25:13.530Z,94.92
2023-04-12T00:27:40.024Z,94.59
2023-04-12T00:30:07.223Z,94.12
2023-04-12T00:32:33.651Z,94.42
2023-04-12T00:35:00.163Z,94.03
2023-04-12T00:37:26.721Z,94.63
2023-04-12T00:39:53.376Z,95.53
2023-04-12T00:42:19.849Z,96.00
2023-04-12T00:44:46.277Z,95.37
2023-04-12T00:47:12.659Z,95.55
2023-04-12T00:49:39.134Z,96.51
2023-04-12T00:52:07.122Z,96.17
2023-04-12T00:54:33.576Z,95.97
2023-04-12T00:57:00.322Z,96.21
2023-04-12T00:59:26.834Z,95.80
2023-04-12T01:01:54.103Z,95.78
2023-04-12T01:04:20.659Z,95.46
2023-04-12T01:06:59.415Z,95.27
2023-04-12T01:09:35.316Z,95.30
2023-04-12T01:12:04.607Z,95.27
2023-04-12T01:14:49.758Z,95.61
2023-04-12T01:17:18.106Z,95.04
2023-04-12T01:19:49.116Z,95.35
2023-04-12T01:22:24.859Z,95.95
2023-04-12T01:24:57.073Z,95.85
2023-04-12T01:27:29.434Z,95.56
2023-04-12T01:29:56.240Z,95.54
2023-04-12T01:32:22.845Z,94.61
2023-04-12T01:34:49.460Z,94.69
2023-04-12T01:37:15.903Z,94.72
2023-04-12T01:39:42.319Z,95.62
2023-04-12T01:42:08.955Z,95.93
2023-04-12T01:44:35.369Z,95.94
2023-04-12T01:47:01.806Z,96.22
2023-04-12T01:49:29.730Z,96.11
2023-04-12T01:51:58.629Z,95.88
2023-04-12T01:54:26.198Z,95.92
2023-04-12T01:56:54.431Z,95.85
2023-04-12T01:59:20.853Z,95.36
2023-04-12T02:01:47.601Z,95.55
2023-04-12T02:04:14.518Z,95.72
2023-04-12T02:06:41.053Z,96.39
2023-04-12T02:09:07.539Z,95.77
2023-04-12T02:11:34.331Z,95.94
2023-04-12T02:14:00.823Z,95.51
2023-04-12T02:16:27.754Z,95.64
2023-04-12T02:18:54.356Z,96.04
2023-04-12T02:21:20.827Z,96.51
2023-04-12T02:23:47.317Z,96.87
2023-04-12T02:26:13.772Z,97.04
2023-04-12T02:28:40.233Z,97.28
2023-04-12T02:31:06.942Z,96.91
2023-04-12T02:33:33.441Z,97.01
2023-04-12T02:35:59.972Z,97.75
2023-04-12T02:38:26.524Z,97.74
2023-04-12T02:40:52.986Z,96.59
2023-04-12T02:43:19.600Z,97.21
2023-04-12T02:45:46.891Z,97.26
2023-04-12T02:48:13.386Z,97.67
2023-04-12T02:50:40.064Z,97.02
2023-04-12T02:53:06.474Z,97.11
2023-04-12T02:55:32.868Z,96.85
2023-04-12T02:57:59.304Z,96.35
2023-04-12T03:00:25.766Z,96.90
2023-04-12T03:02:52.359Z,97.54
2023-04-12T03:05:19.106Z,96.96
2023-04-12T03:07:45.570Z,97.25
2023-04-12T03:10:12.068Z,96.72
2023-04-12T03:12:38.552Z,96.97
2023-04-12T03:15:05.306Z,96.36
2023-04-12T03:17:31.791Z,97.70
2023-04-12T03:20:03.102Z,98.30
2023-04-12T03:22:29.527Z,97.86
2023-04-12T03:24:56.003Z,98.59
2023-04-12T03:27:22.879Z,99.12
2023-04-12T03:29:49.422Z,98.55
2023-04-12T03:32:15.802Z,99.37
2023-04-12T03:34:42.192Z,99.35
2023-04-12T03:37:08.727Z,100.00
2023-04-12T03:39:35.394Z,99.14
2023-04-12T03:42:01.994Z,98.79
2023-04-12T03:44:28.535Z,98.55
2023-04-12T03:46:55.089Z,98.82
2023-04-12T03:49:21.721Z,98.46
2023-04-12T03:51:48.210Z,97.97
2023-04-12T03:54:14.669Z,98.46
2023-04-12T03:56:41.347Z,98.26
2023-04-12T03:59:07.860Z,98.40
2023-04-12T04:01:34.633Z,98.30
2023-04-12T04:04:01.459Z,98.65
2023-04-12T04:06:28.504Z,98.57
2023-04-12T04:08:55.434Z,99.09
2023-04-12T04:11:22.091Z,99.07
2023-04-12T04:13:48.464Z,98.70
2023-04-12T04:16:14.905Z,98.06
2023-04-12T04:18:41.409Z,98.03
2023-04-12T04:21:07.888Z,98.41
2023-04-12T04:23:34.418Z,98.83
2023-04-12T04:26:00.818Z,99.03
2023-04-12T04:28:27.210Z,98.18
2023-04-12T04:30:53.572Z,97.71
2023-04-12T04:33:20.122Z,98.10
2023-04-12T04:35:46.733Z,97.10
2023-04-12T04:38:13.279Z,97.73
2023-04-12T04:40:39.703Z,97.42
2023-04-12T04:43:08.201Z,97.97
2023-04-12T04:45:34.925Z,97.98
2023-04-12T04:48:02.150Z,98.01
2023-04-12T04:50:28.672Z,98.59
2023-04-12T04:52:55.104Z,98.36
2023-04-12T04:55:21.514Z,98.28
2023-04-12T04:57:47.950Z,98.97
2023-04-12T05:00:14.472Z,98.82
2023-04-12T05:02:41.227Z,99.52
2023-04-12T05:05:08.019Z,100.00
2023-04-12T05:07:34.443Z,100.00
2023-04-12T05:10:00.893Z,100.00
2023-04-12T05:12:27.302Z,99.07
2023-04-12T05:15:04.770Z,98.97
2023-04-12T05:17:37.577Z,99.77
2023-04-12T05:20:04.596Z,99.51
2023-04-12T05:22:31.046Z,99.77
2023-04-12T05:24:57.500Z,99.88
2023-04-12T05:27:23.970Z,99.44
2023-04-12T05:29:50.457Z,99.94
2023-04-12T05:32:17.145Z,99.14
2023-04-12T05:34:43.943Z,99.71
2023-04-12T05:37:10.480Z,100.00
2023-04-12T05:39:37.071Z,99.42
2023-04-12T05:42:03.829Z,100.00
2023-04-12T05:44:30.239Z,100.00
2023-04-12T05:46:56.682Z,100.00
2023-04-12T05:49:23.202Z,100.00
2023-04-12T05:51:49.579Z,99.88
2023-04-12T05:54:16.022Z,99.67
2023-04-12T05:56:42.446Z,100.00
2023-04-12T05:59:09.051Z,99.75
2023-04-12T06:01:35.615Z,100.00
2023-04-12T06:04:02.502Z,100.00
2023-04-12T06:06:29.106Z,99.70
2023-04-12T06:08:56.510Z,99.44
2023-04-12T06:11:23.588Z,99.69
2023-04-12T06:13:50.486Z,100.00
2023-04-12T06:16:17.005Z,99.85
2023-04-12T06:18:43.794Z,99.62
2023-04-12T06:21:10.303Z,100.00
2023-04-12T06:23:36.816Z,100.00
2023-04-12T06:26:03.377Z,100.00
2023-04-12T06:28:29.901Z,100.00
2023-04-12T06:30:56.321Z,100.00
2023-04-12T06:33:22.828Z,100.00
2023-04-12T06:35:49.508Z,100.00
2023-04-12T06:38:16.695Z,100.00
2023-04-12T06:40:43.470Z,99.67
2023-04-12T06:43:09.914Z,100.00
2023-04-12T06:45:36.373Z,100.00
2023-04-12T06:48:02.988Z,100.00
2023-04-12T06:50:29.473Z,99.61
2023-04-12T06:52:56.125Z,99.21
2023-04-12T06:55:22.643Z,99.45
2023-04-12T06:57:49.065Z,99.30
2023-04-12T07:00:15.745Z,99.01
2023-04-12T07:02:42.628Z,99.04
2023-04-12T07:05:09.416Z,98.81
2023-04-12T07:07:35.918Z,98.93
2023-04-12T07:10:02.528Z,99.74
2023-04-12T07:12:28.979Z,99.09
2023-04-12T07:14:55.355Z,98.42
2023-04-12T07:17:21.930Z,98.05
2023-04-12T07:19:48.612Z,97.84
2023-04-12T07:22:15.099Z,97.47
2023-04-12T07:24:41.606Z,97.78
2023-04-12T07:27:08.074Z,97.59
2023-04-12T07:29:34.523Z,96.78
2023-04-12T07:32:01.021Z,96.65
2023-04-12T07:34:27.652Z,97.47
2023-04-12T07:36:54.272Z,96.02
2023-04-12T07:39:20.828Z,95.42
2023-04-12T07:41:47.522Z,96.31
2023-04-12T07:44:14.022Z,94.29
2023-04-12T07:46:40.561Z,95.48
2023-04-12T07:49:07.071Z,95.61
2023-04-12T07:51:33.494Z,95.84
2023-04-12T07:53:59.972Z,95.33
2023-04-12T07:56:26.493Z,96.25
2023-04-12T07:58:52.953Z,95.29
2023-04-12T08:01:19.446Z,95.00
2023-04-12T08:03:46.727Z,94.37
2023-04-12T08:06:13.532Z,95.75
2023-04-12T08:08:40.162Z,95.57
2023-04-12T08:11:06.622Z,94.28
2023-04-12T08:13:33.873Z,95.72
2023-04-12T08:16:00.577Z,96.00
2023-04-12T08:18:27.165Z,95.40
2023-04-12T08:20:53.546Z,93.62
2023-04-12T08:23:20.015Z,94.59
2023-04-12T08:25:46.506Z,93.50
2023-04-12T08:28:12.917Z,94.15
2023-04-12T08:30:39.396Z,93.47
2023-04-12T08:33:05.950Z,93.23
2023-04-12T08:35:32.475Z,94.18
2023-04-12T08:37:58.996Z,93.32
2023-04-12T08:40:25.489Z,93.26
2023-04-12T08:42:52.066Z,92.32
2023-04-12T08:45:18.577Z,92.24
2023-04-12T08:47:45.055Z,91.82
2023-04-12T08:50:11.984Z,92.08
2023-04-12T08:52:38.532Z,91.28
2023-04-12T08:55:05.768Z,91.05
2023-04-12T08:57:32.245Z,91.54
2023-04-12T08:59:59.564Z,90.52
2023-04-12T09:02:26.132Z,90.68
2023-04-12T09:04:53.102Z,90.14
2023-04-12T09:07:20.043Z,89.98
2023-04-12T09:09:47.397Z,89.43
2023-04-12T09:12:14.288Z,89.91
2023-04-12T09:14:40.816Z,90.11
2023-04-12T09:17:23.519Z,89.75
2023-04-12T09:19:50.138Z,90.27
2023-04-12T09:22:16.574Z,89.69
2023-04-12T09:24:49.746Z,89.54
2023-04-12T09:27:16.517Z,90.60
2023-04-12T09:29:43.006Z,89.83
2023-04-12T09:32:09.494Z,88.96
2023-04-12T09:34:36.119Z,88.96
2023-04-12T09:37:12.553Z,88.95
2023-04-12T09:39:40.627Z,89.01
2023-04-12T09:42:14.953Z,88.33
2023-04-12T09:44:54.173Z,89.02
2023-04-12T09:47:20.950Z,89.62
2023-04-12T09:49:47.478Z,89.02
2023-04-12T09:52:14.304Z,89.27
2023-04-12T09:54:44.510Z,89.46
2023-04-12T09:57:11.254Z,89.13
2023-04-12T09:59:38.538Z,88.56
2023-04-12T10:02:14.703Z,90.13
2023-04-12T10:04:41.563Z,90.15
2023-04-12T10:07:08.092Z,90.76
2023-04-12T10:09:49.069Z,90.42
2023-04-12T10:12:15.882Z,91.14
2023-04-12T10:14:42.374Z,89.97
2023-04-12T10:17:09.243Z,89.95
2023-04-12T10:19:36.211Z,89.33
2023-04-12T10:22:02.786Z,89.54
2023-04-12T10:24:29.321Z,89.68
2023-04-12T10:26:56.015Z,90.35
2023-04-12T10:29:29.141Z,90.79
2023-04-12T10:31:56.389Z,92.20
2023-04-12T10:34:29.487Z,93.20
2023-04-12T10:36:56.601Z,91.73
2023-04-12T10:39:39.608Z,92.02
2023-04-12T10:42:18.491Z,92.96
2023-04-12T10:44:45.380Z,92.47
2023-04-12T10:47:11.820Z,92.70
2023-04-12T10:49:38.711Z,91.99
2023-04-12T10:52:05.228Z,91.35
2023-04-12T10:54:32.353Z,92.27
2023-04-12T10:56:59.016Z,92.61
2023-04-12T10:59:31.415Z,91.29
2023-04-12T11:02:08.683Z,90.36
2023-04-12T11:04:35.374Z,89.32
2023-04-12T11:07:02.100Z,89.21
2023-04-12T11:09:34.716Z,90.05
2023-04-12T11:12:04.405Z,90.08
2023-04-12T11:14:33.623Z,89.54
2023-04-12T11:17:06.201Z,88.70
2023-04-12T11:19:52.971Z,88.25
2023-04-12T11:22:20.344Z,88.29
2023-04-12T11:24:47.397Z,88.65
2023-04-12T11:27:14.086Z,86.98
2023-04-12T11:29:40.590Z,88.71
2023-04-12T11:32:07.992Z,88.06
2023-04-12T11:34:34.673Z,89.01
2023-04-12T11:37:01.215Z,88.73
2023-04-12T11:39:27.688Z,88.64
2023-04-12T11:41:54.204Z,87.41
2023-04-12T11:44:20.729Z,87.22
2023-04-12T11:46:47.621Z,87.91
2023-04-12T11:49:17.593Z,86.74
2023-04-12T11:51:44.124Z,88.13
2023-04-12T11:54:10.872Z,87.86
2023-04-12T11:56:38.701Z,87.37
2023-04-12T11:59:05.406Z,86.97
2023-04-12T12:01:32.018Z,87.29
2023-04-12T12:04:01.533Z,87.09
2023-04-12T12:06:28.634Z,86.45
2023-04-12T12:08:55.257Z,86.79
2023-04-12T12:11:22.142Z,84.54
2023-04-12T12:13:48.604Z,85.59
2023-04-12T12:16:15.377Z,86.26
2023-04-12T12:18:42.474Z,87.32
2023-04-12T12:21:09.369Z,85.73
2023-04-12T12:23:35.928Z,87.38
2023-04-12T12:26:17.580Z,87.95
2023-04-12T12:28:48.769Z,88.05
2023-04-12T12:31:18.135Z,88.86
2023-04-12T12:33:47.101Z,88.96
2023-04-12T12:39:13.742Z,87.34
2023-04-12T12:41:40.558Z,87.79
2023-04-12T12:44:07.230Z,88.97
2023-04-12T12:46:50.751Z,88.07
2023-04-12T12:49:20.298Z,86.32
2023-04-12T12:51:47.209Z,88.15
2023-04-12T12:54:19.816Z,87.98
2023-04-12T12:56:52.137Z,87.77
2023-04-12T12:59:18.568Z,86.37
2023-04-12T13:01:45.085Z,85.41
2023-04-12T13:04:11.874Z,86.91
2023-04-12T13:06:38.446Z,86.10
2023-04-12T13:09:04.885Z,86.67
2023-04-12T13:11:31.356Z,88.19
2023-04-12T13:13:57.786Z,88.25
2023-04-12T13:16:26.755Z,88.55
2023-04-12T13:18:53.770Z,87.49
2023-04-12T13:21:20.233Z,87.92
2023-04-12T13:23:46.612Z,89.55
2023-04-12T13:26:13.134Z,89.08
2023-04-12T13:28:39.888Z,89.04
2023-04-12T13:31:06.498Z,89.36
2023-04-12T13:33:33.053Z,88.74
2023-04-12T13:35:59.558Z,88.88
2023-04-12T13:38:25.957Z,88.40
2023-04-12T13:40:52.457Z,89.94
2023-04-12T13:43:18.894Z,90.01
2023-04-12T13:45:45.477Z,90.37
2023-04-12T13:48:12.190Z,89.73
2023-04-12T13:50:38.709Z,89.37
2023-04-12T13:53:05.199Z,89.13
2023-04-12T13:55:31.675Z,90.07
2023-04-12T13:57:58.130Z,89.37
2023-04-12T14:00:24.628Z,87.07
2023-04-12T14:02:51.550Z,87.57
2023-04-12T14:05:18.145Z,87.13
2023-04-12T14:07:44.680Z,86.89
2023-04-12T14:10:11.119Z,87.41
2023-04-12T14:12:37.824Z,86.72
2023-04-12T14:15:04.858Z,85.16
2023-04-12T14:17:31.457Z,83.83
2023-04-12T14:19:58.534Z,84.64
2023-04-12T14:22:25.129Z,84.51
2023-04-12T14:24:51.696Z,83.07
2023-04-12T14:27:18.329Z,83.29
2023-04-12T14:29:44.809Z,84.30
2023-04-12T14:32:11.348Z,83.90
2023-04-12T14:34:37.733Z,83.28
2023-04-12T14:37:04.151Z,83.59
2023-04-12T14:39:30.712Z,83.67
2023-04-12T14:41:57.132Z,85.07
2023-04-12T14:44:26.270Z,83.91
2023-04-12T14:46:53.273Z,84.14
2023-04-12T14:49:19.833Z,84.22
2023-04-12T14:51:46.350Z,85.04
2023-04-12T14:54:12.993Z,84.77
2023-04-12T14:56:45.134Z,84.13
2023-04-12T14:59:13.858Z,84.33
2023-04-12T15:01:41.234Z,84.74
2023-04-12T15:04:07.899Z,83.90
2023-04-12T15:06:34.569Z,85.88
2023-04-12T15:09:02.686Z,85.75
2023-04-12T15:11:30.115Z,85.59
2023-04-12T15:13:56.851Z,85.25
2023-04-12T15:16:23.713Z,85.30
2023-04-12T15:18:50.323Z,84.92
2023-04-12T15:21:16.997Z,83.89
2023-04-12T15:23:43.362Z,84.18
2023-04-12T15:26:09.738Z,84.64
2023-04-12T15:28:36.380Z,84.95
2023-04-12T15:31:02.859Z,84.21
2023-04-12T15:33:29.338Z,84.43
2023-04-12T15:35:55.847Z,84.57
2023-04-12T15:38:23.771Z,85.47
2023-04-12T15:40:53.809Z,85.21
2023-04-12T15:43:20.320Z,84.13
2023-04-12T15:45:46.848Z,84.23
2023-04-12T15:48:13.353Z,84.64
2023-04-12T15:50:39.804Z,85.84
2023-04-12T15:53:06.228Z,85.58
2023-04-12T15:55:32.667Z,85.07
2023-04-12T15:57:59.612Z,85.12
2023-04-12T16:00:26.458Z,85.20
2023-04-12T16:02:53.811Z,85.14
2023-04-12T16:05:20.804Z,85.26
2023-04-12T16:07:47.445Z,85.83
2023-04-12T16:10:13.910Z,86.20
2023-04-12T16:12:40.563Z,85.94
2023-04-12T16:15:07.451Z,85.26
2023-04-12T16:17:33.962Z,86.09
2023-04-12T16:20:00.906Z,84.70
2023-04-12T16:22:27.602Z,84.66
2023-04-12T16:24:54.137Z,84.46
2023-04-12T16:27:23.038Z,84.91
2023-04-12T16:29:50.047Z,84.47
2023-04-12T16:32:17.157Z,85.07
2023-04-12T16:34:43.722Z,83.69
2023-04-12T16:37:10.295Z,83.28
2023-04-12T16:39:36.733Z,84.16
2023-04-12T16:42:03.329Z,84.18
2023-04-12T16:44:29.830Z,82.96
2023-04-12T16:46:56.288Z,84.29
2023-04-12T16:49:22.925Z,84.07
2023-04-12T16:51:49.947Z,83.66
2023-04-12T16:54:16.867Z,83.26
2023-04-12T16:56:43.519Z,84.79
2023-04-12T16:59:09.927Z,84.17
2023-04-12T17:01:36.430Z,84.61
2023-04-12T17:04:03.422Z,83.55
2023-04-12T17:06:30.238Z,83.57
2023-04-12T17:08:56.940Z,83.39
2023-04-12T17:11:23.814Z,83.89
2023-04-12T17:13:50.473Z,84.12
2023-04-12T17:16:16.978Z,83.75
2023-04-12T17:18:43.635Z,83.99
2023-04-12T17:21:10.136Z,83.61
2023-04-12T17:23:36.876Z,84.67
2023-04-12T17:26:04.430Z,84.42
2023-04-12T17:28:30.852Z,84.45
2023-04-12T17:30:57.313Z,84.72
2023-04-12T17:33:23.958Z,84.76
2023-04-12T17:35:50.593Z,85.24
2023-04-12T17:38:17.050Z,85.43
2023-04-12T17:40:43.522Z,85.40
2023-04-12T17:43:09.953Z,85.11
2023-04-12T17:45:36.382Z,87.46
2023-04-12T17:48:02.951Z,86.71
2023-04-12T17:50:29.486Z,86.82
2023-04-12T17:52:55.871Z,86.61
2023-04-12T17:55:22.299Z,86.43
2023-04-12T17:57:48.825Z,87.22
2023-04-12T18:00:15.461Z,86.85
2023-04-12T18:02:45.303Z,87.51
2023-04-12T18:05:12.122Z,87.33
2023-04-12T18:07:38.866Z,88.35
2023-04-12T18:10:06.666Z,87.72
2023-04-12T18:12:33.279Z,88.34
2023-04-12T18:14:59.826Z,88.17
2023-04-12T18:17:26.942Z,87.72
2023-04-12T18:19:53.959Z,86.56
2023-04-12T18:22:20.454Z,86.39
2023-04-12T18:24:46.940Z,87.49
2023-04-12T18:27:13.375Z,86.27
2023-04-12T18:29:39.867Z,87.78
2023-04-12T18:32:06.306Z,87.32
2023-04-12T18:34:33.074Z,87.74
2023-04-12T18:36:59.598Z,88.60
2023-04-12T18:39:26.066Z,88.67
2023-04-12T18:41:52.488Z,88.35
2023-04-12T18:44:19.022Z,88.59
2023-04-12T18:46:45.895Z,87.82
2023-04-12T18:49:12.454Z,88.56
2023-04-12T18:51:39.008Z,87.91
2023-04-12T18:54:05.557Z,87.22
2023-04-12T18:56:31.954Z,88.43
2023-04-12T18:58:58.472Z,88.19
2023-04-12T19:01:25.166Z,90.41
2023-04-12T19:03:52.302Z,89.75
2023-04-12T19:06:18.983Z,89.26
2023-04-12T19:08:45.436Z,89.11
2023-04-12T19:11:11.811Z,89.22
2023-04-12T19:13:38.293Z,89.86
2023-04-12T19:16:05.354Z,90.26
2023-04-12T19:18:31.747Z,90.79
2023-04-12T19:20:58.269Z,92.09
2023-04-12T19:23:24.849Z,92.43
2023-04-12T19:25:51.384Z,92.97
2023-04-12T19:28:17.782Z,92.74
2023-04-12T19:30:44.349Z,93.75
2023-04-12T19:33:10.868Z,93.99
2023-04-12T19:35:37.267Z,93.27
2023-04-12T19:38:03.805Z,93.24
2023-04-12T19:40:31.270Z,92.74
2023-04-12T19:42:57.879Z,93.47
2023-04-12T19:45:24.460Z,94.32
2023-04-12T19:47:51.067Z,94.27
2023-04-12T19:50:17.551Z,93.48
2023-04-12T19:52:44.069Z,94.48
2023-04-12T19:55:10.530Z,94.75
2023-04-12T19:57:37.324Z,95.48
2023-04-12T20:00:04.020Z,95.62
2023-04-12T20:02:30.810Z,95.15
2023-04-12T20:04:57.356Z,94.21
2023-04-12T20:07:23.801Z,93.97
2023-04-12T20:09:50.306Z,94.58
2023-04-12T20:12:16.851Z,94.67
2023-04-12T20:14:43.363Z,94.42
2023-04-12T20:17:09.894Z,94.14
2023-04-12T20:19:36.286Z,95.39
2023-04-12T20:22:03.027Z,94.82
2023-04-12T20:24:29.729Z,95.10
2023-04-12T20:26:59.217Z,96.33
2023-04-12T20:29:25.887Z,95.61
2023-04-12T20:31:52.440Z,95.55
2023-04-12T20:34:18.895Z,95.80
2023-04-12T20:36:45.529Z,95.88
2023-04-12T20:39:12.006Z,95.17
2023-04-12T20:41:38.484Z,96.21
2023-04-12T20:44:05.061Z,96.27
2023-04-12T20:46:31.563Z,95.00
2023-04-12T20:48:58.422Z,94.82
2023-04-12T20:51:25.218Z,96.09
2023-04-12T20:53:51.820Z,96.74
2023-04-12T20:56:18.221Z,96.19
2023-04-12T20:58:45.324Z,95.91
2023-04-12T21:01:11.899Z,95.48
2023-04-12T21:03:38.665Z,97.18
2023-04-12T21:06:05.342Z,98.48
2023-04-12T21:08:33.467Z,99.49
2023-04-12T21:11:00.172Z,99.31
2023-04-12T21:13:26.645Z,100.00
2023-04-12T21:15:53.200Z,99.85
2023-04-12T21:18:19.919Z,100.00
2023-04-12T21:20:46.690Z,100.00
2023-04-12T21:23:16.488Z,100.00
2023-04-12T21:25:43.001Z,99.46
2023-04-12T21:28:09.470Z,100.00
2023-04-12T21:30:36.040Z,100.00
2023-04-12T21:33:02.604Z,99.80
2023-04-12T21:35:29.425Z,99.79
2023-04-12T21:37:56.069Z,100.00
2023-04-12T21:40:22.956Z,99.32
2023-04-12T21:42:50.391Z,100.00
2023-04-12T21:45:16.990Z,100.00
2023-04-12T21:47:43.632Z,100.00
2023-04-12T21:50:10.391Z,100.00
2023-04-12T21:52:36.909Z,100.00
2023-04-12T21:55:03.619Z,100.00
2023-04-12T21:57:30.559Z,99.60
2023-04-12T21:59:57.024Z,99.69
2023-04-12T22:02:24.396Z,99.95
2023-04-12T22:04:51.073Z,99.85
2023-04-12T22:07:17.680Z,99.44
2023-04-12T22:09:44.491Z,99.33
2023-04-12T22:12:11.120Z,98.06
2023-04-12T22:14:37.664Z,95.50
2023-04-12T22:17:04.611Z,93.79
2023-04-12T22:19:31.109Z,95.09
2023-04-12T22:21:57.596Z,94.20
2023-04-12T22:24:24.048Z,92.70
2023-04-12T22:26:50.472Z,92.36
2023-04-12T22:29:17.023Z,93.29
2023-04-12T22:31:43.854Z,94.02
2023-04-12T22:34:10.280Z,93.79
2023-04-12T22:36:37.007Z,96.33
2023-04-12T22:39:04.124Z,95.64
2023-04-12T22:41:30.636Z,96.43
2023-04-12T22:43:57.422Z,96.52
2023-04-12T22:46:24.026Z,97.77
2023-04-12T22:48:50.623Z,97.95
2023-04-12T22:51:17.173Z,99.12
2023-04-12T22:53:43.776Z,99.97
2023-04-12T22:56:10.303Z,100.00
2023-04-12T22:58:36.992Z,99.99
2023-04-12T23:01:03.593Z,100.00
2023-04-12T23:03:30.120Z,100.00
2023-04-12T23:05:56.597Z,99.93
2023-04-12T23:08:23.162Z,100.00
2023-04-12T23:10:49.898Z,100.00
2023-04-12T23:13:16.602Z,100.00
2023-04-12T23:15:43.126Z,100.00
2023-04-12T23:18:09.881Z,100.00
2023-04-12T23:20:36.617Z,100.00
2023-04-12T23:23:03.349Z,100.00
2023-04-12T23:25:31.478Z,100.00
2023-04-12T23:27:57.938Z,100.00
2023-04-12T23:30:24.572Z,100.00
2023-04-12T23:32:51.386Z,100.00
2023-04-12T23:35:18.144Z,100.00
2023-04-12T23:37:44.720Z,100.00
2023-04-12T23:40:11.717Z,100.00
2023-04-12T23:42:38.634Z,100.00
2023-04-12T23:45:05.786Z,100.00
2023-04-12T23:47:32.294Z,100.00
2023-04-12T23:49:58.727Z,100.00
2023-04-12T23:52:25.224Z,100.00
2023-04-12T23:54:51.693Z,100.00
2023-04-12T23:57:18.138Z,100.00
2023-04-12T23:59:44.770Z,100.00
